Terminal Aerodrome Forecast
Issued by NWS

Home | Current Version | Previous Version | Text Only | Print | Product List | Glossary Off
Versions: 1 2 3 4 5 6 7 8 9 10 11 12 13 14 15 16 17 18 19 20

000
FTUS43 KDLH 010900 AAB
TAFBRD
TAF AMD
KBRD 010923Z 0109/0206 19009KT P6SM SCT015 BKN025
      TEMPO 0109/0111 4SM -SN BR BKN015
     FM011100 25005KT P6SM SCT029
     FM011600 26010KT P6SM BKN035
     FM012300 28010KT P6SM SKC=

USA.gov is the U.S. government's official web portal to all federal, state and local government web resources and services.